Time;durP1;ratioP1;P1;durP2;ratioP2;P2;SDS_P1;SDS_P2;PMS_P1;PMS_P2;Temp;Humidity;BMP_temperature;BMP_pressure;BME280_temperature;BME280_humidity;BME280_pressure;Samples;Min_cycle;Max_cycle;Signal;HPM_P1;HPM_P2
2023/10/24 00:02:18;;;;;;;3.22;1.73;;;;;;;;;;4967066;28;92926;-78
2023/10/24 00:04:45;;;;;;;5.03;2.13;;;;;;;;;;4975230;28;92948;-78
2023/10/24 00:07:11;;;;;;;5.40;1.95;;;;;;;;;;4972831;28;92587;-78
2023/10/24 00:09:38;;;;;;;6.00;1.85;;;;;;;;;;4968748;28;93053;-78
2023/10/24 00:12:05;;;;;;;6.10;2.00;;;;;;;;;;4966946;28;96070;-78
2023/10/24 00:14:32;;;;;;;;;;;;;;;;;;4971230;28;92754;-77
2023/10/24 00:16:58;;;;;;;4.10;2.00;;;;;;;;;;4969791;28;94296;-78
2023/10/24 00:19:25;;;;;;;5.07;1.98;;;;;;;;;;4968733;28;92733;-76
2023/10/24 00:21:51;;;;;;;4.43;1.88;;;;;;;;;;4961118;28;92747;-77
2023/10/24 00:24:18;;;;;;;5.13;1.95;;;;;;;;;;4965689;28;93272;-76
2023/10/24 00:26:45;;;;;;;4.15;1.85;;;;;;;;;;4968442;28;93092;-76
2023/10/24 00:29:11;;;;;;;5.90;2.10;;;;;;;;;;4964280;28;92329;-76
2023/10/24 00:31:38;;;;;;;5.25;1.90;;;;;;;;;;4965859;28;95687;-76
2023/10/24 00:34:04;;;;;;;4.50;1.90;;;;;;;;;;4966862;28;92541;-76
2023/10/24 00:36:31;;;;;;;4.90;1.88;;;;;;;;;;4970099;28;95186;-76
2023/10/24 00:38:57;;;;;;;5.60;2.00;;;;;;;;;;4968822;28;92530;-76
2023/10/24 00:41:24;;;;;;;4.15;1.90;;;;;;;;;;4967003;28;94957;-76
2023/10/24 00:43:53;;;;;;;4.15;1.80;;;;;;;;;;4966844;28;93532;-76
2023/10/24 00:46:19;;;;;;;5.05;1.90;;;;;;;;;;4966765;28;93141;-77
2023/10/24 00:48:46;;;;;;;4.40;1.80;;;;;;;;;;4962890;28;96758;-76
2023/10/24 00:51:13;;;;;;;3.53;1.60;;;;;;;;;;4973654;28;93434;-76
2023/10/24 00:53:40;;;;;;;4.75;1.95;;;;;;;;;;4969324;28;91712;-75
2023/10/24 00:56:10;;;;;;;3.15;1.70;;;;;;;;;;4968661;28;92796;-76
2023/10/24 00:58:38;;;;;;;3.78;1.90;;;;;;;;;;4971385;28;93244;-76
2023/10/24 01:01:05;;;;;;;3.55;1.60;;;;;;;;;;4965753;28;95062;-77
2023/10/24 01:03:32;;;;;;;3.95;1.83;;;;;;;;;;4966495;28;94211;-76
2023/10/24 01:06:00;;;;;;;4.18;1.70;;;;;;;;;;4968714;28;93050;-76
2023/10/24 01:08:26;;;;;;;4.00;1.85;;;;;;;;;;4966692;28;95500;-76
2023/10/24 01:10:53;;;;;;;5.15;1.73;;;;;;;;;;4969406;28;93458;-76
2023/10/24 01:13:19;;;;;;;4.72;1.75;;;;;;;;;;4971370;28;92526;-76
2023/10/24 01:15:46;;;;;;;4.40;1.92;;;;;;;;;;4970330;28;93220;-76
2023/10/24 01:18:12;;;;;;;4.32;1.85;;;;;;;;;;4968636;28;92422;-76
2023/10/24 01:20:42;;;;;;;3.80;1.80;;;;;;;;;;4976535;28;92736;-76
2023/10/24 01:23:08;;;;;;;4.25;1.83;;;;;;;;;;4970515;28;93174;-76
2023/10/24 01:25:40;;;;;;;4.38;1.83;;;;;;;;;;4969668;28;95366;-76
2023/10/24 01:28:07;;;;;;;3.65;1.83;;;;;;;;;;4969043;28;95214;-76
2023/10/24 01:30:35;;;;;;;3.92;2.03;;;;;;;;;;4961754;28;93475;-76
2023/10/24 01:33:02;;;;;;;4.22;1.65;;;;;;;;;;4969363;28;92958;-76
2023/10/24 01:35:29;;;;;;;3.20;1.83;;;;;;;;;;4969922;28;95818;-76
2023/10/24 01:37:56;;;;;;;6.38;1.90;;;;;;;;;;4973263;28;94437;-76
2023/10/24 01:40:23;;;;;;;5.60;1.80;;;;;;;;;;4973959;28;93034;-76
2023/10/24 01:42:50;;;;;;;6.20;2.00;;;;;;;;;;4971649;28;92261;-76
2023/10/24 01:45:16;;;;;;;6.45;2.50;;;;;;;;;;4969632;28;92761;-76
2023/10/24 01:47:43;;;;;;;6.25;1.98;;;;;;;;;;4971453;28;93178;-76
2023/10/24 01:50:10;;;;;;;7.85;2.08;;;;;;;;;;4966821;28;98088;-76
2023/10/24 01:52:36;;;;;;;5.50;2.00;;;;;;;;;;4970473;28;92435;-76
2023/10/24 01:55:03;;;;;;;5.60;1.83;;;;;;;;;;4969254;28;94564;-77
2023/10/24 01:57:29;;;;;;;5.50;1.90;;;;;;;;;;4970607;28;92948;-77
2023/10/24 01:59:56;;;;;;;9.00;1.67;;;;;;;;;;4969283;28;92529;-77
2023/10/24 02:02:23;;;;;;;4.25;1.70;;;;;;;;;;4970714;28;95567;-76
2023/10/24 02:04:50;;;;;;;4.20;1.92;;;;;;;;;;4970684;28;92734;-76
2023/10/24 02:07:17;;;;;;;4.03;1.85;;;;;;;;;;4980943;28;92648;-76
2023/10/24 02:09:43;;;;;;;5.63;2.10;;;;;;;;;;4968601;28;93829;-75
2023/10/24 02:12:10;;;;;;;5.88;1.77;;;;;;;;;;4950122;28;92569;-76
2023/10/24 02:14:36;;;;;;;5.35;2.10;;;;;;;;;;4982941;28;95506;-76
2023/10/24 02:17:03;;;;;;;5.72;1.80;;;;;;;;;;4968410;28;96203;-76
2023/10/24 02:19:30;;;;;;;5.93;1.90;;;;;;;;;;4985248;28;92720;-76
2023/10/24 02:21:56;;;;;;;5.88;2.28;;;;;;;;;;4970136;28;92799;-76
2023/10/24 02:24:23;;;;;;;6.78;1.90;;;;;;;;;;4973591;28;93191;-76
2023/10/24 02:26:50;;;;;;;5.40;1.80;;;;;;;;;;4975590;27;92809;-76
2023/10/24 02:29:17;;;;;;;6.97;1.67;;;;;;;;;;4964420;28;92446;-76
2023/10/24 02:31:44;;;;;;;4.00;1.80;;;;;;;;;;4969135;28;92206;-76
2023/10/24 02:34:10;;;;;;;5.05;2.00;;;;;;;;;;4969959;28;92367;-76
2023/10/24 02:36:37;;;;;;;3.92;1.58;;;;;;;;;;4970099;28;93072;-77
2023/10/24 02:39:04;;;;;;;4.07;1.63;;;;;;;;;;4968452;28;97921;-76
2023/10/24 02:41:30;;;;;;;4.68;2.00;;;;;;;;;;4968568;28;98015;-77
2023/10/24 02:43:58;;;;;;;4.85;1.73;;;;;;;;;;4969743;28;92985;-76
2023/10/24 02:46:25;;;;;;;4.20;1.73;;;;;;;;;;4988034;28;92923;-77
2023/10/24 02:48:51;;;;;;;3.70;1.52;;;;;;;;;;4967949;28;95987;-76
2023/10/24 02:51:18;;;;;;;5.00;1.80;;;;;;;;;;4970012;28;92707;-76
2023/10/24 02:53:47;;;;;;;4.45;1.55;;;;;;;;;;4978676;28;92759;-77
2023/10/24 02:56:13;;;;;;;3.70;1.60;;;;;;;;;;4969068;28;92422;-77
2023/10/24 02:58:40;;;;;;;4.63;1.60;;;;;;;;;;4970006;28;92493;-77
2023/10/24 03:01:06;;;;;;;4.43;1.67;;;;;;;;;;4969519;28;92800;-77
2023/10/24 03:03:33;;;;;;;4.07;1.77;;;;;;;;;;4965867;28;95809;-78
2023/10/24 03:06:00;;;;;;;3.42;1.30;;;;;;;;;;4969834;28;92883;-78
2023/10/24 03:08:26;;;;;;;3.75;1.70;;;;;;;;;;4967993;28;94904;-78
2023/10/24 03:10:53;;;;;;;3.80;1.40;;;;;;;;;;4966795;27;92868;-77
2023/10/24 03:13:20;;;;;;;3.13;1.48;;;;;;;;;;4968754;28;95508;-77
2023/10/24 03:15:46;;;;;;;4.63;1.63;;;;;;;;;;4969982;28;92715;-78
2023/10/24 03:18:13;;;;;;;3.22;1.60;;;;;;;;;;4969117;28;92895;-77
2023/10/24 03:20:40;;;;;;;3.40;1.50;;;;;;;;;;4969429;28;93922;-77
2023/10/24 03:23:07;;;;;;;2.97;1.42;;;;;;;;;;4985386;28;94433;-77
2023/10/24 03:25:33;;;;;;;3.13;1.50;;;;;;;;;;4970030;28;93671;-78
2023/10/24 03:28:00;;;;;;;4.53;1.55;;;;;;;;;;4966711;28;95480;-78
2023/10/24 03:30:26;;;;;;;3.45;1.60;;;;;;;;;;4967195;28;92969;-78
2023/10/24 03:32:53;;;;;;;3.83;1.50;;;;;;;;;;4968498;28;93849;-78
2023/10/24 03:35:19;;;;;;;4.43;1.42;;;;;;;;;;4969640;28;93053;-78
2023/10/24 03:37:46;;;;;;;3.67;1.50;;;;;;;;;;4984117;28;93175;-78
2023/10/24 03:40:13;;;;;;;3.47;1.70;;;;;;;;;;4968795;28;93020;-78
2023/10/24 03:42:39;;;;;;;3.40;1.40;;;;;;;;;;4969298;28;92368;-77
2023/10/24 03:45:06;;;;;;;3.35;1.55;;;;;;;;;;4968627;28;92159;-78
2023/10/24 03:47:33;;;;;;;4.00;1.75;;;;;;;;;;4969260;28;92633;-77
2023/10/24 03:49:59;;;;;;;3.40;1.52;;;;;;;;;;4970457;28;93153;-78
2023/10/24 03:52:26;;;;;;;3.75;1.45;;;;;;;;;;4970371;28;95591;-78
2023/10/24 03:54:53;;;;;;;3.58;1.42;;;;;;;;;;4974543;28;93607;-77
2023/10/24 03:57:19;;;;;;;3.28;1.33;;;;;;;;;;4969324;28;92905;-77
2023/10/24 03:59:46;;;;;;;3.42;1.45;;;;;;;;;;4969596;28;93309;-77
2023/10/24 04:02:12;;;;;;;2.65;1.30;;;;;;;;;;4967893;28;92717;-77
2023/10/24 04:04:39;;;;;;;2.75;1.33;;;;;;;;;;4969664;28;93133;-77
2023/10/24 04:07:06;;;;;;;3.90;1.60;;;;;;;;;;4951254;28;96188;-77
2023/10/24 04:09:33;;;;;;;3.78;1.25;;;;;;;;;;4968547;28;93346;-77
2023/10/24 04:12:05;;;;;;;2.53;1.25;;;;;;;;;;4971607;28;92694;-78
2023/10/24 04:14:32;;;;;;;4.07;1.73;;;;;;;;;;4963090;28;95896;-76
2023/10/24 04:16:58;;;;;;;3.80;1.50;;;;;;;;;;4957856;28;95164;-77
2023/10/24 04:19:25;;;;;;;2.88;1.40;;;;;;;;;;4968573;28;95223;-77
2023/10/24 04:21:52;;;;;;;3.38;1.60;;;;;;;;;;4968289;28;94059;-77
2023/10/24 04:24:19;;;;;;;;;;;;;;;;;;4970298;28;93780;-77
2023/10/24 04:26:45;;;;;;;2.95;1.40;;;;;;;;;;4969088;28;92484;-77
2023/10/24 04:29:12;;;;;;;5.05;1.50;;;;;;;;;;4963140;28;93156;-76
2023/10/24 04:31:39;;;;;;;2.85;1.50;;;;;;;;;;4966139;28;92364;-77
2023/10/24 04:34:05;;;;;;;4.28;1.52;;;;;;;;;;4971649;28;93887;-76
2023/10/24 04:36:32;;;;;;;4.45;1.60;;;;;;;;;;4968503;28;93018;-77
2023/10/24 04:38:59;;;;;;;4.72;1.80;;;;;;;;;;4968372;28;93153;-77
2023/10/24 04:41:26;;;;;;;3.47;1.60;;;;;;;;;;4966873;28;95519;-76
2023/10/24 04:43:52;;;;;;;4.78;1.70;;;;;;;;;;4970235;28;92810;-76
2023/10/24 04:46:19;;;;;;;3.28;1.50;;;;;;;;;;4972235;28;92791;-76
2023/10/24 04:48:46;;;;;;;3.70;1.70;;;;;;;;;;4971329;28;95399;-76
2023/10/24 04:51:12;;;;;;;4.57;1.75;;;;;;;;;;4970422;28;93121;-76
2023/10/24 04:53:39;;;;;;;3.88;1.70;;;;;;;;;;4995996;28;93456;-76
2023/10/24 04:56:05;;;;;;;3.70;1.60;;;;;;;;;;4972926;28;93284;-76
2023/10/24 04:58:32;;;;;;;3.85;1.70;;;;;;;;;;4972220;28;92843;-76
2023/10/24 05:00:59;;;;;;;3.05;1.55;;;;;;;;;;4986876;28;94967;-76
2023/10/24 05:03:26;;;;;;;4.07;1.60;;;;;;;;;;4971090;28;92867;-76
2023/10/24 05:05:53;;;;;;;3.50;1.55;;;;;;;;;;4972282;28;94839;-76
2023/10/24 05:08:20;;;;;;;4.18;1.73;;;;;;;;;;4972362;28;93134;-76
2023/10/24 05:10:46;;;;;;;4.13;1.58;;;;;;;;;;4989704;28;92765;-75
2023/10/24 05:13:13;;;;;;;2.88;1.40;;;;;;;;;;4976885;28;92752;-76
2023/10/24 05:15:40;;;;;;;4.43;1.67;;;;;;;;;;4978368;28;92770;-77
2023/10/24 05:18:11;;;;;;;3.90;1.55;;;;;;;;;;4979407;28;92624;-76
2023/10/24 05:20:38;;;;;;;3.15;1.50;;;;;;;;;;4976345;28;92471;-76
2023/10/24 05:23:05;;;;;;;3.78;1.50;;;;;;;;;;4978803;28;92154;-76
2023/10/24 05:25:32;;;;;;;2.80;1.40;;;;;;;;;;4977775;28;92773;-76
2023/10/24 05:27:58;;;;;;;3.65;1.45;;;;;;;;;;4974239;28;93190;-77
2023/10/24 05:30:25;;;;;;;3.28;1.55;;;;;;;;;;4975314;28;95686;-77
2023/10/24 05:32:51;;;;;;;2.53;1.30;;;;;;;;;;4972586;28;95729;-77
2023/10/24 05:35:18;;;;;;;3.38;1.58;;;;;;;;;;4971175;28;93218;-76
2023/10/24 05:37:45;;;;;;;3.38;1.52;;;;;;;;;;4972900;28;92890;-77
2023/10/24 05:40:11;;;;;;;2.90;1.40;;;;;;;;;;4960631;28;92847;-76
2023/10/24 05:42:38;;;;;;;2.97;1.52;;;;;;;;;;4971605;28;93013;-77
2023/10/24 05:45:04;;;;;;;3.22;1.73;;;;;;;;;;4971663;28;93484;-77
2023/10/24 05:47:31;;;;;;;4.68;1.52;;;;;;;;;;4969901;28;94041;-76
2023/10/24 05:49:57;;;;;;;4.88;1.63;;;;;;;;;;4970890;28;92534;-77
2023/10/24 05:52:24;;;;;;;4.15;1.70;;;;;;;;;;4972780;28;93705;-76
2023/10/24 05:54:51;;;;;;;5.45;1.55;;;;;;;;;;4973033;28;95347;-76
2023/10/24 05:57:18;;;;;;;4.18;1.50;;;;;;;;;;4970809;28;93427;-76
2023/10/24 05:59:44;;;;;;;4.22;1.63;;;;;;;;;;4974450;28;92827;-77
2023/10/24 06:02:11;;;;;;;4.90;1.67;;;;;;;;;;4970281;28;92757;-77
2023/10/24 06:04:38;;;;;;;3.42;1.60;;;;;;;;;;4970961;28;92779;-76
2023/10/24 06:07:07;;;;;;;5.32;1.77;;;;;;;;;;4970175;28;93149;-77
2023/10/24 06:09:33;;;;;;;4.30;1.85;;;;;;;;;;4968780;28;92608;-77
2023/10/24 06:12:00;;;;;;;4.60;1.80;;;;;;;;;;4960785;28;92832;-77
2023/10/24 06:14:27;;;;;;;4.25;1.70;;;;;;;;;;4967422;28;93984;-77
2023/10/24 06:16:53;;;;;;;4.50;1.88;;;;;;;;;;4970795;28;92881;-77
2023/10/24 06:19:20;;;;;;;4.32;1.83;;;;;;;;;;4969329;28;95159;-77
2023/10/24 06:21:46;;;;;;;3.63;1.67;;;;;;;;;;4973532;28;93188;-77
2023/10/24 06:24:13;;;;;;;4.40;1.90;;;;;;;;;;4971247;28;92805;-76
2023/10/24 06:26:39;;;;;;;3.83;1.63;;;;;;;;;;4963977;28;93099;-77
2023/10/24 06:29:06;;;;;;;6.10;1.63;;;;;;;;;;4966222;28;92882;-77
2023/10/24 06:31:32;;;;;;;4.75;1.75;;;;;;;;;;4969092;28;92768;-77
2023/10/24 06:33:59;;;;;;;4.88;1.67;;;;;;;;;;4970669;28;94938;-77
2023/10/24 06:36:26;;;;;;;3.70;1.65;;;;;;;;;;4970999;28;92017;-77
2023/10/24 06:38:53;;;;;;;3.13;1.40;;;;;;;;;;4970023;28;93173;-77
2023/10/24 06:41:20;;;;;;;3.58;1.45;;;;;;;;;;4965609;28;93133;-76
2023/10/24 06:43:46;;;;;;;4.38;1.88;;;;;;;;;;4968297;28;94899;-76
2023/10/24 06:46:13;;;;;;;3.33;1.42;;;;;;;;;;4951756;28;94179;-76
2023/10/24 06:48:40;;;;;;;4.35;1.40;;;;;;;;;;4968309;28;92481;-76
2023/10/24 06:51:06;;;;;;;2.97;1.23;;;;;;;;;;4969089;28;92755;-76
2023/10/24 06:53:33;;;;;;;2.67;1.48;;;;;;;;;;4973684;28;96492;-76
2023/10/24 06:56:03;;;;;;;3.38;1.35;;;;;;;;;;4950770;28;92757;-76
2023/10/24 06:58:29;;;;;;;3.42;1.40;;;;;;;;;;4948722;28;95129;-75
2023/10/24 07:00:56;;;;;;;1.80;1.23;;;;;;;;;;4968669;28;92356;-76
2023/10/24 07:03:23;;;;;;;3.22;1.33;;;;;;;;;;4968460;28;92786;-76
2023/10/24 07:05:51;;;;;;;2.95;1.20;;;;;;;;;;4972221;28;92779;-76
2023/10/24 07:08:18;;;;;;;3.50;1.50;;;;;;;;;;4964518;28;95403;-76
2023/10/24 07:10:46;;;;;;;3.55;1.38;;;;;;;;;;4966232;28;92902;-75
2023/10/24 07:13:13;;;;;;;2.22;1.27;;;;;;;;;;4967835;28;93715;-76
2023/10/24 07:15:40;;;;;;;3.00;1.42;;;;;;;;;;4968764;28;93411;-76
2023/10/24 07:18:06;;;;;;;2.95;1.50;;;;;;;;;;4968503;28;92809;-75
2023/10/24 07:20:37;;;;;;;2.35;1.27;;;;;;;;;;4969037;28;93631;-77
2023/10/24 07:23:04;;;;;;;3.25;1.40;;;;;;;;;;4968032;28;92931;-77
2023/10/24 07:25:31;;;;;;;5.00;1.20;;;;;;;;;;4969205;28;93376;-76
2023/10/24 07:27:58;;;;;;;3.45;1.40;;;;;;;;;;4971288;28;94373;-77
2023/10/24 07:30:24;;;;;;;4.70;1.52;;;;;;;;;;4967724;28;92398;-77
2023/10/24 07:32:54;;;;;;;2.22;1.40;;;;;;;;;;4964758;28;95808;-76
2023/10/24 07:35:21;;;;;;;6.20;1.73;;;;;;;;;;4967904;28;92826;-76
2023/10/24 07:37:48;;;;;;;6.88;1.60;;;;;;;;;;4974257;28;92917;-76
2023/10/24 07:40:15;;;;;;;3.80;1.70;;;;;;;;;;4967776;28;92967;-76
2023/10/24 07:42:41;;;;;;;4.50;1.58;;;;;;;;;;4967643;28;92564;-76
2023/10/24 07:45:08;;;;;;;4.68;1.55;;;;;;;;;;4968031;28;94781;-76
2023/10/24 07:47:35;;;;;;;5.85;1.50;;;;;;;;;;4966408;28;93562;-76
2023/10/24 07:50:01;;;;;;;2.75;1.52;;;;;;;;;;4971862;28;91744;-76
2023/10/24 07:52:29;;;;;;;3.00;1.52;;;;;;;;;;4968210;28;94296;-76
2023/10/24 07:54:56;;;;;;;4.00;1.67;;;;;;;;;;4968845;28;92536;-76
2023/10/24 07:57:23;;;;;;;3.00;1.42;;;;;;;;;;4966614;28;95408;-77
2023/10/24 07:59:49;;;;;;;3.00;1.55;;;;;;;;;;4968834;28;93317;-77
2023/10/24 08:02:16;;;;;;;4.63;1.67;;;;;;;;;;4967555;28;92703;-77
2023/10/24 08:04:42;;;;;;;3.70;1.50;;;;;;;;;;4968557;28;92915;-77
2023/10/24 08:07:09;;;;;;;2.70;1.45;;;;;;;;;;4967408;28;93576;-77
2023/10/24 08:09:35;;;;;;;3.53;1.42;;;;;;;;;;4969986;28;92816;-77
2023/10/24 08:12:02;;;;;;;5.45;1.90;;;;;;;;;;4967059;28;93157;-78
2023/10/24 08:14:29;;;;;;;3.60;1.58;;;;;;;;;;4968491;28;92716;-78
2023/10/24 08:16:55;;;;;;;5.43;1.70;;;;;;;;;;4968360;28;93005;-77
2023/10/24 08:19:22;;;;;;;4.68;1.73;;;;;;;;;;4965266;28;93585;-77
2023/10/24 08:21:49;;;;;;;4.15;1.63;;;;;;;;;;4972554;28;96373;-77
2023/10/24 08:24:16;;;;;;;4.28;1.80;;;;;;;;;;4969826;28;94010;-77
2023/10/24 08:26:42;;;;;;;5.68;1.90;;;;;;;;;;4965740;28;96012;-77
2023/10/24 08:29:24;;;;;;;5.05;1.65;;;;;;;;;;4961303;28;92515;-77
2023/10/24 08:31:51;;;;;;;3.63;1.60;;;;;;;;;;4968560;28;93118;-77
2023/10/24 08:34:27;;;;;;;4.10;1.92;;;;;;;;;;4967355;28;92444;-77
2023/10/24 08:36:53;;;;;;;3.92;1.75;;;;;;;;;;4965686;28;94397;-78
2023/10/24 08:39:21;;;;;;;5.55;1.80;;;;;;;;;;4947185;28;95315;-78
2023/10/24 08:41:50;;;;;;;3.47;1.63;;;;;;;;;;4963042;28;93245;-76
2023/10/24 08:44:17;;;;;;;3.70;1.52;;;;;;;;;;4967146;28;92884;-77
2023/10/24 08:46:45;;;;;;;4.05;1.80;;;;;;;;;;4965661;28;95483;-76
2023/10/24 08:49:13;;;;;;;5.10;1.73;;;;;;;;;;4967648;28;92509;-76
2023/10/24 08:51:39;;;;;;;3.65;1.80;;;;;;;;;;4965615;28;93535;-77
2023/10/24 08:54:06;;;;;;;3.75;1.80;;;;;;;;;;4970163;28;95215;-76
2023/10/24 08:56:33;;;;;;;3.83;2.00;;;;;;;;;;4966084;28;94180;-76
2023/10/24 08:59:00;;;;;;;4.88;2.20;;;;;;;;;;4967361;28;93211;-76
2023/10/24 09:01:27;;;;;;;4.05;2.00;;;;;;;;;;4967619;28;93026;-76
2023/10/24 09:03:54;;;;;;;4.15;1.73;;;;;;;;;;4966177;28;96056;-76
2023/10/24 09:06:22;;;;;;;4.30;1.73;;;;;;;;;;4966295;28;93057;-77
2023/10/24 09:08:51;;;;;;;4.93;2.05;;;;;;;;;;4966295;28;92748;-76
2023/10/24 09:11:18;;;;;;;6.20;1.95;;;;;;;;;;4958355;28;94964;-76
2023/10/24 09:13:45;;;;;;;4.20;1.50;;;;;;;;;;4967266;28;92465;-76
2023/10/24 09:16:12;;;;;;;3.42;1.58;;;;;;;;;;4969550;28;92838;-78
2023/10/24 09:18:40;;;;;;;4.07;1.77;;;;;;;;;;4966613;28;92987;-77
2023/10/24 09:21:07;;;;;;;4.03;1.83;;;;;;;;;;4965469;28;92819;-76
2023/10/24 09:23:35;;;;;;;4.28;1.95;;;;;;;;;;4966764;28;95303;-76
2023/10/24 09:26:03;;;;;;;4.70;1.70;;;;;;;;;;4966737;28;93493;-77
2023/10/24 09:28:29;;;;;;;3.63;1.90;;;;;;;;;;4967462;28;92316;-77
2023/10/24 09:31:00;;;;;;;4.18;1.52;;;;;;;;;;4963404;28;93013;-77
2023/10/24 09:33:30;;;;;;;4.57;1.83;;;;;;;;;;4970544;28;93745;-77
2023/10/24 09:35:56;;;;;;;7.95;1.80;;;;;;;;;;4966950;28;95513;-77
2023/10/24 09:38:42;;;;;;;5.10;2.00;;;;;;;;;;4970974;28;102238;-77
2023/10/24 09:41:10;;;;;;;5.43;1.70;;;;;;;;;;4969410;28;100340;-76
2023/10/24 09:43:41;;;;;;;4.80;1.95;;;;;;;;;;4969067;28;93019;-76
2023/10/24 09:46:08;;;;;;;4.03;1.80;;;;;;;;;;4968391;28;94783;-77
2023/10/24 09:48:35;;;;;;;7.28;1.80;;;;;;;;;;4967762;28;93533;-76
2023/10/24 09:51:02;;;;;;;5.65;1.67;;;;;;;;;;4960578;28;92899;-76
2023/10/24 09:53:29;;;;;;;3.35;1.60;;;;;;;;;;4968557;28;94218;-76
2023/10/24 09:55:56;;;;;;;4.18;1.92;;;;;;;;;;4970397;28;93677;-76
2023/10/24 09:58:23;;;;;;;;;;;;;;;;;;4972573;28;92652;-76
2023/10/24 10:00:50;;;;;;;4.05;1.90;;;;;;;;;;4969430;28;105505;-76
2023/10/24 10:03:16;;;;;;;4.15;1.52;;;;;;;;;;4969660;28;95068;-77
2023/10/24 10:05:44;;;;;;;6.13;1.77;;;;;;;;;;4967240;28;94477;-76
2023/10/24 10:08:14;;;;;;;8.02;2.28;;;;;;;;;;4969291;28;92480;-76
2023/10/24 10:10:42;;;;;;;5.22;1.63;;;;;;;;;;4969195;28;93446;-77
2023/10/24 10:13:14;;;;;;;4.25;1.95;;;;;;;;;;4969466;28;92962;-76
2023/10/24 10:15:55;;;;;;;4.72;1.67;;;;;;;;;;4969723;28;92821;-77
2023/10/24 10:18:39;;;;;;;4.82;1.90;;;;;;;;;;4968758;28;92740;-75
2023/10/24 10:21:13;;;;;;;4.63;1.80;;;;;;;;;;4967156;28;93289;-75
2023/10/24 10:23:49;;;;;;;3.80;1.85;;;;;;;;;;4974019;28;96036;-78
2023/10/24 10:26:35;;;;;;;4.18;1.90;;;;;;;;;;4964284;28;98233;-78
2023/10/24 10:29:08;;;;;;;3.60;1.63;;;;;;;;;;4964611;28;92554;-78
2023/10/24 10:31:46;;;;;;;3.83;1.70;;;;;;;;;;4963407;28;93041;-78
2023/10/24 10:34:34;;;;;;;4.47;1.90;;;;;;;;;;4968700;28;97821;-78
2023/10/24 10:37:01;;;;;;;3.67;1.67;;;;;;;;;;4969436;28;92663;-78
2023/10/24 10:39:29;;;;;;;4.82;1.70;;;;;;;;;;4962160;28;93275;-77
2023/10/24 10:41:56;;;;;;;4.28;1.70;;;;;;;;;;4961942;28;94051;-78
2023/10/24 10:44:41;;;;;;;2.97;1.50;;;;;;;;;;4969651;28;91859;-78
2023/10/24 10:47:14;;;;;;;5.03;1.80;;;;;;;;;;4964146;28;92955;-78
2023/10/24 10:49:50;;;;;;;7.93;2.03;;;;;;;;;;4966726;28;92627;-79
2023/10/24 10:52:25;;;;;;;7.35;2.00;;;;;;;;;;4963366;28;95041;-78
2023/10/24 10:55:05;;;;;;;9.65;2.42;;;;;;;;;;4967241;28;94088;-78
2023/10/24 10:57:37;;;;;;;5.90;1.85;;;;;;;;;;4968435;28;93052;-78
2023/10/24 11:00:04;;;;;;;5.13;2.03;;;;;;;;;;4967582;28;92493;-78
2023/10/24 11:03:00;;;;;;;7.20;2.47;;;;;;;;;;4968314;28;98121;-78
2023/10/24 11:05:40;;;;;;;5.28;2.13;;;;;;;;;;4947807;28;92619;-78
2023/10/24 11:08:07;;;;;;;5.88;2.38;;;;;;;;;;4971820;28;93368;-75
2023/10/24 11:10:34;;;;;;;;;;;;;;;;;;4968071;28;91994;-77
2023/10/24 11:13:00;;;;;;;5.72;1.73;;;;;;;;;;4974002;28;92747;-76
2023/10/24 11:15:27;;;;;;;5.95;2.08;;;;;;;;;;4964225;28;94264;-76
2023/10/24 11:17:54;;;;;;;5.32;1.75;;;;;;;;;;4965484;28;94891;-77
2023/10/24 11:20:23;;;;;;;7.18;1.80;;;;;;;;;;4967472;28;94023;-76
2023/10/24 11:22:50;;;;;;;5.97;1.90;;;;;;;;;;4963236;28;93073;-76
2023/10/24 11:25:17;;;;;;;4.60;1.70;;;;;;;;;;4970089;28;93165;-77
2023/10/24 11:27:46;;;;;;;4.97;1.67;;;;;;;;;;4969572;28;93297;-77
2023/10/24 11:30:13;;;;;;;4.43;1.70;;;;;;;;;;4956500;28;92972;-77
2023/10/24 11:32:40;;;;;;;5.03;2.00;;;;;;;;;;4993643;28;93397;-77
2023/10/24 11:35:07;;;;;;;2.83;1.60;;;;;;;;;;4968823;28;92676;-77
2023/10/24 11:37:33;;;;;;;5.22;1.83;;;;;;;;;;4966974;28;93713;-77
2023/10/24 11:40:00;;;;;;;4.28;1.70;;;;;;;;;;4965996;28;95830;-76
2023/10/24 11:42:27;;;;;;;5.85;1.83;;;;;;;;;;4962964;28;98491;-76
2023/10/24 11:44:53;;;;;;;3.80;1.90;;;;;;;;;;4968554;28;92880;-76
2023/10/24 11:47:20;;;;;;;3.80;1.67;;;;;;;;;;4968731;28;94101;-76
2023/10/24 11:49:47;;;;;;;4.07;1.52;;;;;;;;;;4968344;28;94692;-76
2023/10/24 11:52:14;;;;;;;5.32;2.13;;;;;;;;;;4969851;28;92972;-76
2023/10/24 11:54:41;;;;;;;3.42;1.63;;;;;;;;;;4968230;28;92969;-76
2023/10/24 11:57:08;;;;;;;4.10;1.60;;;;;;;;;;4970826;28;92468;-76
2023/10/24 11:59:35;;;;;;;3.03;1.65;;;;;;;;;;4979390;28;92810;-76
2023/10/24 12:02:03;;;;;;;4.95;2.00;;;;;;;;;;4967917;28;93679;-76
2023/10/24 12:04:30;;;;;;;3.90;1.80;;;;;;;;;;4968141;28;92606;-76
2023/10/24 12:07:00;;;;;;;4.05;1.80;;;;;;;;;;4966111;28;94894;-76
2023/10/24 12:09:27;;;;;;;4.28;1.73;;;;;;;;;;4967880;28;93793;-77
2023/10/24 12:11:55;;;;;;;5.05;1.60;;;;;;;;;;4971072;28;92847;-76
2023/10/24 12:14:22;;;;;;;3.40;1.42;;;;;;;;;;4967078;28;93614;-76
2023/10/24 12:16:48;;;;;;;4.85;1.67;;;;;;;;;;4964625;28;92797;-76
2023/10/24 12:19:25;;;;;;;4.00;1.70;;;;;;;;;;4968892;28;93193;-76
2023/10/24 12:21:52;;;;;;;3.50;1.70;;;;;;;;;;4963215;28;93684;-77
2023/10/24 12:24:19;;;;;;;3.70;1.50;;;;;;;;;;4967380;28;91760;-76
2023/10/24 12:26:46;;;;;;;3.30;1.70;;;;;;;;;;4966905;28;93052;-82
2023/10/24 12:29:12;;;;;;;3.55;1.67;;;;;;;;;;4975724;28;93337;-82
2023/10/24 12:31:39;;;;;;;4.05;1.60;;;;;;;;;;4964624;28;95046;-82
2023/10/24 12:34:08;;;;;;;3.47;1.63;;;;;;;;;;4974937;28;95058;-82
2023/10/24 12:36:35;;;;;;;4.00;1.50;;;;;;;;;;4974674;28;92811;-83
2023/10/24 12:39:01;;;;;;;3.85;1.50;;;;;;;;;;4971926;28;92479;-83
2023/10/24 12:41:28;;;;;;;4.35;1.70;;;;;;;;;;4973107;28;93212;-82
2023/10/24 12:43:55;;;;;;;3.88;1.65;;;;;;;;;;4975715;28;93243;-81
2023/10/24 12:46:22;;;;;;;3.85;1.50;;;;;;;;;;4975602;28;95973;-82
2023/10/24 12:48:48;;;;;;;4.93;1.60;;;;;;;;;;4963874;28;92636;-83
2023/10/24 12:51:27;;;;;;;3.17;1.58;;;;;;;;;;4985573;28;92475;-82
2023/10/24 12:53:54;;;;;;;3.15;1.40;;;;;;;;;;4977577;28;92833;-81
2023/10/24 12:56:21;;;;;;;4.88;1.73;;;;;;;;;;4984976;28;96711;-81
2023/10/24 12:58:49;;;;;;;3.53;1.50;;;;;;;;;;4974901;28;94083;-82
2023/10/24 13:01:17;;;;;;;3.63;1.70;;;;;;;;;;4970436;28;93304;-81
2023/10/24 13:03:44;;;;;;;3.17;1.50;;;;;;;;;;4974015;28;92466;-83
2023/10/24 13:06:11;;;;;;;4.55;1.60;;;;;;;;;;4972348;28;96014;-83
2023/10/24 13:08:37;;;;;;;5.20;1.65;;;;;;;;;;4974457;28;93479;-82
2023/10/24 13:11:04;;;;;;;3.13;1.50;;;;;;;;;;4968306;28;92735;-81
2023/10/24 13:13:31;;;;;;;3.83;1.58;;;;;;;;;;4970122;28;92750;-81
2023/10/24 13:15:57;;;;;;;3.08;1.48;;;;;;;;;;4972795;28;92944;-81
2023/10/24 13:18:24;;;;;;;2.55;1.42;;;;;;;;;;4973325;28;93023;-82
2023/10/24 13:20:54;;;;;;;3.38;1.50;;;;;;;;;;4968491;28;96089;-82
2023/10/24 13:23:20;;;;;;;3.45;1.40;;;;;;;;;;4972517;28;92985;-81
2023/10/24 13:25:47;;;;;;;2.80;1.60;;;;;;;;;;4971283;28;93090;-82
2023/10/24 13:28:15;;;;;;;3.83;1.63;;;;;;;;;;4968741;28;94064;-82
2023/10/24 13:30:44;;;;;;;3.88;1.52;;;;;;;;;;4969153;28;92987;-82
2023/10/24 13:33:28;;;;;;;3.78;1.52;;;;;;;;;;4962149;28;92924;-83
2023/10/24 13:35:56;;;;;;;2.90;1.45;;;;;;;;;;4966777;28;93206;-82
2023/10/24 13:38:26;;;;;;;2.83;1.48;;;;;;;;;;4966940;28;92311;-82
2023/10/24 13:40:53;;;;;;;2.85;1.40;;;;;;;;;;4962595;28;93142;-83
2023/10/24 13:43:22;;;;;;;3.45;1.67;;;;;;;;;;4968637;28;92950;-83
2023/10/24 13:45:48;;;;;;;3.00;1.40;;;;;;;;;;4967042;28;95278;-83
2023/10/24 13:48:15;;;;;;;3.72;1.60;;;;;;;;;;4977071;28;93663;-84
2023/10/24 13:50:42;;;;;;;4.13;1.63;;;;;;;;;;4968941;28;92821;-82
2023/10/24 13:53:08;;;;;;;3.28;1.60;;;;;;;;;;4969335;28;92861;-83
2023/10/24 13:55:36;;;;;;;4.18;1.50;;;;;;;;;;4982319;28;93393;-82
2023/10/24 13:58:03;;;;;;;3.00;1.40;;;;;;;;;;4969674;28;92895;-83
2023/10/24 14:00:29;;;;;;;3.95;1.70;;;;;;;;;;4968287;28;92447;-83
2023/10/24 14:02:56;;;;;;;4.97;1.70;;;;;;;;;;4972694;28;93187;-82
2023/10/24 14:05:22;;;;;;;4.07;1.77;;;;;;;;;;4967256;28;94614;-82
2023/10/24 14:07:49;;;;;;;3.85;1.63;;;;;;;;;;4968957;28;96321;-82
2023/10/24 14:10:16;;;;;;;4.57;1.73;;;;;;;;;;4964189;28;94874;-84
2023/10/24 14:12:42;;;;;;;2.75;1.60;;;;;;;;;;4955462;28;95074;-82
2023/10/24 14:15:09;;;;;;;4.28;1.70;;;;;;;;;;4956701;28;94344;-80
2023/10/24 14:17:35;;;;;;;4.18;1.50;;;;;;;;;;4972702;28;92488;-81
2023/10/24 14:20:02;;;;;;;4.75;1.52;;;;;;;;;;4956767;28;92497;-81
2023/10/24 14:22:29;;;;;;;3.83;1.55;;;;;;;;;;4970683;28;99660;-81
2023/10/24 14:24:56;;;;;;;3.10;1.40;;;;;;;;;;4968873;28;92624;-82
2023/10/24 14:27:22;;;;;;;3.65;1.60;;;;;;;;;;4968330;28;93425;-82
2023/10/24 14:29:49;;;;;;;4.40;1.60;;;;;;;;;;4962687;28;93381;-82
2023/10/24 14:32:15;;;;;;;3.42;1.48;;;;;;;;;;4967049;28;92907;-84
2023/10/24 14:34:42;;;;;;;3.85;1.48;;;;;;;;;;4965791;28;95549;-84
2023/10/24 14:37:09;;;;;;;4.57;1.50;;;;;;;;;;4966179;28;92471;-82
2023/10/24 14:39:35;;;;;;;4.20;1.70;;;;;;;;;;4968463;28;92992;-83
2023/10/24 14:42:02;;;;;;;3.15;1.42;;;;;;;;;;4966672;28;95395;-83
2023/10/24 14:44:28;;;;;;;3.35;1.50;;;;;;;;;;4970295;28;92572;-83
2023/10/24 14:46:55;;;;;;;4.22;1.60;;;;;;;;;;4968367;28;93759;-83